sensor_id;sensor_type;location;lat;lon;timestamp;pressure;altitude;pressure_sealevel;temperature;humidity
9538;BME280;4807;48.024;11.726;2023-05-07T00:02:07;94925.44;;;10.67;86.62
9538;BME280;4807;48.024;11.726;2023-05-07T00:05:15;94926.28;;;10.67;86.97
9538;BME280;4807;48.024;11.726;2023-05-07T00:08:26;94920.56;;;10.77;86.33
9538;BME280;4807;48.024;11.726;2023-05-07T00:11:35;94924.84;;;10.78;86.67
9538;BME280;4807;48.024;11.726;2023-05-07T00:14:44;94917.06;;;10.77;86.71
9538;BME280;4807;48.024;11.726;2023-05-07T00:17:53;94919.53;;;10.85;85.93
9538;BME280;4807;48.024;11.726;2023-05-07T00:21:01;94922.00;;;10.86;86.10
9538;BME280;4807;48.024;11.726;2023-05-07T00:24:11;94916.25;;;10.69;87.22
9538;BME280;4807;48.024;11.726;2023-05-07T00:27:20;94912.13;;;10.67;87.04
9538;BME280;4807;48.024;11.726;2023-05-07T00:30:29;94908.44;;;10.68;87.55
9538;BME280;4807;48.024;11.726;2023-05-07T00:33:38;94905.38;;;10.71;87.20
9538;BME280;4807;48.024;11.726;2023-05-07T00:36:46;94912.97;;;10.74;86.49
9538;BME280;4807;48.024;11.726;2023-05-07T00:39:56;94909.47;;;10.74;86.92
9538;BME280;4807;48.024;11.726;2023-05-07T00:43:05;94908.84;;;10.71;86.83
9538;BME280;4807;48.024;11.726;2023-05-07T00:46:14;94908.44;;;10.68;86.80
9538;BME280;4807;48.024;11.726;2023-05-07T00:49:25;94910.88;;;10.50;88.05
9538;BME280;4807;48.024;11.726;2023-05-07T00:52:38;94907.19;;;10.64;87.25
9538;BME280;4807;48.024;11.726;2023-05-07T00:55:48;94908.84;;;10.65;87.48
9538;BME280;4807;48.024;11.726;2023-05-07T00:58:58;94910.50;;;10.66;87.18
9538;BME280;4807;48.024;11.726;2023-05-07T01:02:07;94908.06;;;10.78;86.11
9538;BME280;4807;48.024;11.726;2023-05-07T01:05:17;94904.56;;;10.77;86.11
9538;BME280;4807;48.024;11.726;2023-05-07T01:08:28;94910.91;;;10.76;86.46
9538;BME280;4807;48.024;11.726;2023-05-07T01:11:40;94907.44;;;10.69;86.75
9538;BME280;4807;48.024;11.726;2023-05-07T01:14:49;94908.03;;;10.71;87.14
9538;BME280;4807;48.024;11.726;2023-05-07T01:17:58;94905.59;;;10.69;87.30
9538;BME280;4807;48.024;11.726;2023-05-07T01:21:12;94912.94;;;10.67;86.23
9538;BME280;4807;48.024;11.726;2023-05-07T01:24:30;94922.16;;;10.65;86.50
9538;BME280;4807;48.024;11.726;2023-05-07T01:27:40;94916.63;;;10.60;86.76
9538;BME280;4807;48.024;11.726;2023-05-07T01:30:52;94913.34;;;10.64;87.05
9538;BME280;4807;48.024;11.726;2023-05-07T01:34:01;94910.88;;;10.56;86.87
9538;BME280;4807;48.024;11.726;2023-05-07T01:37:12;94896.53;;;10.51;87.36
9538;BME280;4807;48.024;11.726;2023-05-07T01:40:24;94892.22;;;10.50;86.85
9538;BME280;4807;48.024;11.726;2023-05-07T01:43:33;94890.59;;;10.49;86.99
9538;BME280;4807;48.024;11.726;2023-05-07T01:46:42;94899.19;;;10.51;87.54
9538;BME280;4807;48.024;11.726;2023-05-07T01:49:51;94896.94;;;10.54;87.08
9538;BME280;4807;48.024;11.726;2023-05-07T01:53:01;94902.47;;;10.53;87.46
9538;BME280;4807;48.024;11.726;2023-05-07T01:56:13;94901.22;;;10.49;86.55
9538;BME280;4807;48.024;11.726;2023-05-07T01:59:22;94898.56;;;10.42;86.93
9538;BME280;4807;48.024;11.726;2023-05-07T02:02:31;94897.72;;;10.42;86.65
9538;BME280;4807;48.024;11.726;2023-05-07T02:05:40;94899.19;;;10.44;86.62
9538;BME280;4807;48.024;11.726;2023-05-07T02:09:06;94898.16;;;10.45;87.09
9538;BME280;4807;48.024;11.726;2023-05-07T02:12:19;94900.84;;;10.45;86.65
9538;BME280;4807;48.024;11.726;2023-05-07T02:15:27;94911.44;;;10.39;87.27
9538;BME280;4807;48.024;11.726;2023-05-07T02:18:38;94902.22;;;10.35;87.51
9538;BME280;4807;48.024;11.726;2023-05-07T02:21:46;94893.22;;;10.36;87.14
9538;BME280;4807;48.024;11.726;2023-05-07T02:24:55;94900.16;;;10.30;87.26
9538;BME280;4807;48.024;11.726;2023-05-07T02:28:05;94897.09;;;10.26;87.61
9538;BME280;4807;48.024;11.726;2023-05-07T02:31:24;94900.13;;;10.23;87.21
9538;BME280;4807;48.024;11.726;2023-05-07T02:34:33;94901.41;;;10.41;87.49
9538;BME280;4807;48.024;11.726;2023-05-07T02:37:42;94896.44;;;10.24;87.46
9538;BME280;4807;48.024;11.726;2023-05-07T02:40:50;94899.75;;;10.26;87.32
9538;BME280;4807;48.024;11.726;2023-05-07T02:44:00;94902.22;;;10.28;87.56
9538;BME280;4807;48.024;11.726;2023-05-07T02:47:09;94900.28;;;10.15;87.80
9538;BME280;4807;48.024;11.726;2023-05-07T02:50:21;94895.13;;;10.07;87.66
9538;BME280;4807;48.024;11.726;2023-05-07T02:53:30;94904.13;;;10.06;87.27
9538;BME280;4807;48.024;11.726;2023-05-07T02:56:39;94903.53;;;10.04;87.64
9538;BME280;4807;48.024;11.726;2023-05-07T02:59:48;94900.88;;;10.04;87.08
9538;BME280;4807;48.024;11.726;2023-05-07T03:02:59;94899.41;;;10.02;87.62
9538;BME280;4807;48.024;11.726;2023-05-07T03:06:09;94902.28;;;10.00;87.43
9538;BME280;4807;48.024;11.726;2023-05-07T03:09:17;94902.06;;;9.95;88.21
9538;BME280;4807;48.024;11.726;2023-05-07T03:12:26;94900.81;;;9.98;88.05
9538;BME280;4807;48.024;11.726;2023-05-07T03:15:36;94900.03;;;9.97;88.27
9538;BME280;4807;48.024;11.726;2023-05-07T03:18:45;94902.69;;;9.97;88.43
9538;BME280;4807;48.024;11.726;2023-05-07T03:21:53;94900.59;;;9.92;88.23
9538;BME280;4807;48.024;11.726;2023-05-07T03:25:03;94902.63;;;9.90;88.43
9538;BME280;4807;48.024;11.726;2023-05-07T03:28:11;94896.28;;;9.91;88.06
9538;BME280;4807;48.024;11.726;2023-05-07T03:31:28;94892.63;;;9.92;87.80
9538;BME280;4807;48.024;11.726;2023-05-07T03:34:36;94895.44;;;9.84;88.82
9538;BME280;4807;48.024;11.726;2023-05-07T03:37:46;94890.56;;;9.88;88.63
9538;BME280;4807;48.024;11.726;2023-05-07T03:40:55;94880.31;;;9.85;88.22
9538;BME280;4807;48.024;11.726;2023-05-07T03:44:04;94882.81;;;9.93;88.85
9538;BME280;4807;48.024;11.726;2023-05-07T03:47:15;94887.31;;;9.99;88.60
9538;BME280;4807;48.024;11.726;2023-05-07T03:50:25;94890.41;;;9.96;87.86
9538;BME280;4807;48.024;11.726;2023-05-07T03:53:33;94889.13;;;9.92;88.18
9538;BME280;4807;48.024;11.726;2023-05-07T03:56:42;94897.31;;;9.90;88.54
9538;BME280;4807;48.024;11.726;2023-05-07T03:59:51;94897.94;;;9.92;87.76
9538;BME280;4807;48.024;11.726;2023-05-07T04:03:00;94895.88;;;9.88;88.27
9538;BME280;4807;48.024;11.726;2023-05-07T04:06:11;94904.88;;;9.87;87.97
9538;BME280;4807;48.024;11.726;2023-05-07T04:09:23;94901.16;;;9.81;88.78
9538;BME280;4807;48.024;11.726;2023-05-07T04:12:32;94914.25;;;9.83;88.35
9538;BME280;4807;48.024;11.726;2023-05-07T04:15:41;94914.72;;;9.58;89.81
9538;BME280;4807;48.024;11.726;2023-05-07T04:18:55;94915.84;;;9.71;89.44
9538;BME280;4807;48.024;11.726;2023-05-07T04:22:04;94916.66;;;9.71;89.11
9538;BME280;4807;48.024;11.726;2023-05-07T04:25:13;94915.16;;;9.97;88.46
9538;BME280;4807;48.024;11.726;2023-05-07T04:28:22;94916.03;;;10.10;87.96
9538;BME280;4807;48.024;11.726;2023-05-07T04:31:31;94921.56;;;10.15;87.29
9538;BME280;4807;48.024;11.726;2023-05-07T04:34:41;94930.41;;;10.22;87.62
9538;BME280;4807;48.024;11.726;2023-05-07T04:37:50;94931.50;;;10.35;86.65
9538;BME280;4807;48.024;11.726;2023-05-07T04:41:02;94930.31;;;10.44;86.42
9538;BME280;4807;48.024;11.726;2023-05-07T04:44:11;94923.53;;;10.48;85.92
9538;BME280;4807;48.024;11.726;2023-05-07T04:47:19;94924.19;;;10.63;85.83
9538;BME280;4807;48.024;11.726;2023-05-07T04:50:30;94918.09;;;10.76;85.76
9538;BME280;4807;48.024;11.726;2023-05-07T04:53:41;94921.38;;;10.97;84.55
9538;BME280;4807;48.024;11.726;2023-05-07T04:56:51;94926.31;;;11.00;84.44
9538;BME280;4807;48.024;11.726;2023-05-07T04:59:59;94934.91;;;10.96;84.96
9538;BME280;4807;48.024;11.726;2023-05-07T05:03:11;94931.63;;;11.14;84.02
9538;BME280;4807;48.024;11.726;2023-05-07T05:06:21;94933.09;;;11.23;83.14
9538;BME280;4807;48.024;11.726;2023-05-07T05:09:31;94938.41;;;11.23;83.35
9538;BME280;4807;48.024;11.726;2023-05-07T05:12:41;94933.69;;;11.25;82.82
9538;BME280;4807;48.024;11.726;2023-05-07T05:15:50;94937.56;;;11.35;83.10
9538;BME280;4807;48.024;11.726;2023-05-07T05:19:01;94945.81;;;11.34;82.51
9538;BME280;4807;48.024;11.726;2023-05-07T05:22:16;94944.16;;;11.39;83.16
9538;BME280;4807;48.024;11.726;2023-05-07T05:25:25;94935.53;;;11.44;82.66
9538;BME280;4807;48.024;11.726;2023-05-07T05:28:36;94929.78;;;11.47;83.21
9538;BME280;4807;48.024;11.726;2023-05-07T05:31:45;94933.06;;;11.62;82.75
9538;BME280;4807;48.024;11.726;2023-05-07T05:34:54;94928.13;;;11.79;82.49
9538;BME280;4807;48.024;11.726;2023-05-07T05:38:04;94929.72;;;12.06;82.50
9538;BME280;4807;48.024;11.726;2023-05-07T05:41:13;94925.13;;;12.20;82.50
9538;BME280;4807;48.024;11.726;2023-05-07T05:44:22;94923.22;;;12.34;82.97
9538;BME280;4807;48.024;11.726;2023-05-07T05:47:31;94926.00;;;12.52;82.41
9538;BME280;4807;48.024;11.726;2023-05-07T05:50:42;94926.63;;;13.23;79.93
9538;BME280;4807;48.024;11.726;2023-05-07T05:53:52;94920.38;;;14.52;75.10
9538;BME280;4807;48.024;11.726;2023-05-07T05:57:01;94920.22;;;16.18;70.72
9538;BME280;4807;48.024;11.726;2023-05-07T06:00:12;94923.00;;;17.32;66.15
9538;BME280;4807;48.024;11.726;2023-05-07T06:03:26;94924.81;;;17.76;63.90
9538;BME280;4807;48.024;11.726;2023-05-07T06:06:37;94921.06;;;18.33;61.61
9538;BME280;4807;48.024;11.726;2023-05-07T06:09:48;94918.16;;;19.53;58.77
9538;BME280;4807;48.024;11.726;2023-05-07T06:12:56;94929.16;;;21.40;52.73
9538;BME280;4807;48.024;11.726;2023-05-07T06:16:06;94914.69;;;23.31;48.14
9538;BME280;4807;48.024;11.726;2023-05-07T06:19:15;94914.78;;;24.27;45.74
9538;BME280;4807;48.024;11.726;2023-05-07T06:22:25;94915.94;;;23.43;47.36
9538;BME280;4807;48.024;11.726;2023-05-07T06:25:36;94929.34;;;24.89;45.11
9538;BME280;4807;48.024;11.726;2023-05-07T06:28:44;94921.66;;;25.76;42.02
9538;BME280;4807;48.024;11.726;2023-05-07T06:31:55;94916.50;;;27.00;38.63
9538;BME280;4807;48.024;11.726;2023-05-07T06:35:04;94916.81;;;27.48;37.71
9538;BME280;4807;48.024;11.726;2023-05-07T06:38:16;94924.78;;;27.08;39.18
9538;BME280;4807;48.024;11.726;2023-05-07T06:41:27;94926.75;;;26.62;38.46
9538;BME280;4807;48.024;11.726;2023-05-07T06:44:40;94923.59;;;26.08;39.91
9538;BME280;4807;48.024;11.726;2023-05-07T06:47:51;94925.31;;;26.37;40.89
9538;BME280;4807;48.024;11.726;2023-05-07T06:51:02;94930.63;;;26.74;38.85
9538;BME280;4807;48.024;11.726;2023-05-07T06:54:12;94927.59;;;26.89;39.85
9538;BME280;4807;48.024;11.726;2023-05-07T06:57:24;94930.78;;;27.60;38.37
9538;BME280;4807;48.024;11.726;2023-05-07T07:00:33;94930.94;;;25.94;40.21
9538;BME280;4807;48.024;11.726;2023-05-07T07:03:42;94931.22;;;25.55;39.56
9538;BME280;4807;48.024;11.726;2023-05-07T07:06:53;94934.91;;;25.45;41.40
9538;BME280;4807;48.024;11.726;2023-05-07T07:10:02;94923.22;;;25.02;42.15
9538;BME280;4807;48.024;11.726;2023-05-07T07:13:13;94926.41;;;26.03;40.31
9538;BME280;4807;48.024;11.726;2023-05-07T07:16:22;94927.47;;;25.89;41.64
9538;BME280;4807;48.024;11.726;2023-05-07T07:19:31;94930.38;;;26.43;39.29
9538;BME280;4807;48.024;11.726;2023-05-07T07:22:43;94929.72;;;25.68;39.79
9538;BME280;4807;48.024;11.726;2023-05-07T07:25:52;94927.66;;;25.60;39.96
9538;BME280;4807;48.024;11.726;2023-05-07T07:29:02;94930.59;;;26.60;38.16
9538;BME280;4807;48.024;11.726;2023-05-07T07:32:11;94926.69;;;25.08;40.02
9538;BME280;4807;48.024;11.726;2023-05-07T07:35:21;94927.56;;;24.27;44.17
9538;BME280;4807;48.024;11.726;2023-05-07T07:38:32;94928.72;;;25.40;41.28
9538;BME280;4807;48.024;11.726;2023-05-07T07:41:41;94929.66;;;24.06;43.52
9538;BME280;4807;48.024;11.726;2023-05-07T07:44:52;94932.06;;;23.30;45.24
9538;BME280;4807;48.024;11.726;2023-05-07T07:48:03;94931.72;;;23.85;43.67
9538;BME280;4807;48.024;11.726;2023-05-07T07:51:16;94936.22;;;24.82;42.46
9538;BME280;4807;48.024;11.726;2023-05-07T07:54:25;94943.16;;;25.97;40.04
9538;BME280;4807;48.024;11.726;2023-05-07T07:57:34;94936.31;;;26.32;39.60
9538;BME280;4807;48.024;11.726;2023-05-07T08:00:46;94943.75;;;24.95;40.57
9538;BME280;4807;48.024;11.726;2023-05-07T08:03:55;94940.44;;;23.38;45.20
9538;BME280;4807;48.024;11.726;2023-05-07T08:07:06;94940.81;;;21.81;46.58
9538;BME280;4807;48.024;11.726;2023-05-07T08:10:19;94944.91;;;21.89;49.67
9538;BME280;4807;48.024;11.726;2023-05-07T08:13:33;94941.88;;;22.51;47.47
9538;BME280;4807;48.024;11.726;2023-05-07T08:16:44;94944.16;;;20.95;50.54
9538;BME280;4807;48.024;11.726;2023-05-07T08:19:53;94948.41;;;21.59;47.84
9538;BME280;4807;48.024;11.726;2023-05-07T08:23:02;94948.97;;;22.17;49.25
9538;BME280;4807;48.024;11.726;2023-05-07T08:26:12;94952.41;;;22.63;46.83
9538;BME280;4807;48.024;11.726;2023-05-07T08:29:21;94950.75;;;22.72;46.37
9538;BME280;4807;48.024;11.726;2023-05-07T08:32:31;94942.75;;;21.86;47.58
9538;BME280;4807;48.024;11.726;2023-05-07T08:35:40;94950.31;;;21.63;47.19
9538;BME280;4807;48.024;11.726;2023-05-07T08:38:51;94958.47;;;22.14;48.29
9538;BME280;4807;48.024;11.726;2023-05-07T08:42:01;94957.66;;;21.98;47.47
9538;BME280;4807;48.024;11.726;2023-05-07T08:45:13;94957.13;;;22.27;46.05
9538;BME280;4807;48.024;11.726;2023-05-07T08:48:26;94957.19;;;23.06;44.10
9538;BME280;4807;48.024;11.726;2023-05-07T08:51:44;94958.59;;;23.48;42.48
9538;BME280;4807;48.024;11.726;2023-05-07T08:54:53;94954.88;;;23.29;43.52
9538;BME280;4807;48.024;11.726;2023-05-07T08:58:04;94953.63;;;23.60;44.97
9538;BME280;4807;48.024;11.726;2023-05-07T09:01:22;94950.63;;;24.01;45.12
9538;BME280;4807;48.024;11.726;2023-05-07T09:04:34;94952.06;;;24.27;42.61
9538;BME280;4807;48.024;11.726;2023-05-07T09:07:44;94955.00;;;23.63;43.63
9538;BME280;4807;48.024;11.726;2023-05-07T09:10:54;94961.03;;;22.90;44.86
9538;BME280;4807;48.024;11.726;2023-05-07T09:14:03;94955.97;;;23.28;46.12
9538;BME280;4807;48.024;11.726;2023-05-07T09:17:19;94952.97;;;23.78;46.11
9538;BME280;4807;48.024;11.726;2023-05-07T09:20:30;94950.88;;;24.04;44.77
9538;BME280;4807;48.024;11.726;2023-05-07T09:23:41;94947.31;;;23.75;45.73
9538;BME280;4807;48.024;11.726;2023-05-07T09:26:50;94955.41;;;23.80;44.55
9538;BME280;4807;48.024;11.726;2023-05-07T09:29:59;94944.16;;;23.57;42.19
9538;BME280;4807;48.024;11.726;2023-05-07T09:33:08;94952.91;;;22.90;44.43
9538;BME280;4807;48.024;11.726;2023-05-07T09:36:22;94945.72;;;23.14;45.91
9538;BME280;4807;48.024;11.726;2023-05-07T09:39:39;94948.78;;;23.52;42.66
9538;BME280;4807;48.024;11.726;2023-05-07T09:42:50;94945.75;;;23.64;43.98
9538;BME280;4807;48.024;11.726;2023-05-07T09:46:02;94948.94;;;23.21;43.60
9538;BME280;4807;48.024;11.726;2023-05-07T09:49:19;94939.25;;;23.93;43.92
9538;BME280;4807;48.024;11.726;2023-05-07T09:52:32;94939.91;;;24.48;42.73
9538;BME280;4807;48.024;11.726;2023-05-07T09:55:45;94935.03;;;23.77;46.04
9538;BME280;4807;48.024;11.726;2023-05-07T09:58:57;94926.94;;;24.06;42.09
9538;BME280;4807;48.024;11.726;2023-05-07T10:02:11;94934.00;;;23.73;43.03
9538;BME280;4807;48.024;11.726;2023-05-07T10:05:28;94938.81;;;23.81;42.33
9538;BME280;4807;48.024;11.726;2023-05-07T10:08:40;94935.38;;;24.05;42.45
9538;BME280;4807;48.024;11.726;2023-05-07T10:11:51;94941.13;;;23.15;43.79
9538;BME280;4807;48.024;11.726;2023-05-07T10:15:02;94938.50;;;23.49;41.72
9538;BME280;4807;48.024;11.726;2023-05-07T10:18:13;94939.50;;;23.97;41.91
9538;BME280;4807;48.024;11.726;2023-05-07T10:21:24;94934.75;;;24.42;39.79
9538;BME280;4807;48.024;11.726;2023-05-07T10:24:41;94929.44;;;23.98;38.83
9538;BME280;4807;48.024;11.726;2023-05-07T10:27:57;94934.28;;;23.72;40.63
9538;BME280;4807;48.024;11.726;2023-05-07T10:31:15;94929.97;;;23.66;43.58
9538;BME280;4807;48.024;11.726;2023-05-07T10:34:32;94932.59;;;23.32;39.72
9538;BME280;4807;48.024;11.726;2023-05-07T10:37:45;94934.94;;;23.53;39.68
9538;BME280;4807;48.024;11.726;2023-05-07T10:40:55;94935.13;;;24.01;39.40
9538;BME280;4807;48.024;11.726;2023-05-07T10:44:04;94932.19;;;24.26;38.59
9538;BME280;4807;48.024;11.726;2023-05-07T10:47:16;94924.63;;;24.18;40.24
9538;BME280;4807;48.024;11.726;2023-05-07T10:50:29;94933.41;;;23.76;38.61
9538;BME280;4807;48.024;11.726;2023-05-07T10:53:42;94933.16;;;23.29;41.29
9538;BME280;4807;48.024;11.726;2023-05-07T10:57:32;94929.34;;;23.35;37.84
9538;BME280;4807;48.024;11.726;2023-05-07T11:01:02;94932.38;;;23.72;38.19
9538;BME280;4807;48.024;11.726;2023-05-07T11:04:16;94932.19;;;23.58;36.90
9538;BME280;4807;48.024;11.726;2023-05-07T11:07:41;94928.00;;;22.78;38.60
9538;BME280;4807;48.024;11.726;2023-05-07T11:11:03;94931.09;;;23.10;40.87
9538;BME280;4807;48.024;11.726;2023-05-07T11:14:45;94929.78;;;23.47;38.99
9538;BME280;4807;48.024;11.726;2023-05-07T11:18:05;94927.34;;;24.23;37.19
9538;BME280;4807;48.024;11.726;2023-05-07T11:21:34;94929.59;;;24.93;36.44
9538;BME280;4807;48.024;11.726;2023-05-07T11:25:05;94920.06;;;25.14;36.98
9538;BME280;4807;48.024;11.726;2023-05-07T11:28:15;94923.03;;;24.46;34.74
9538;BME280;4807;48.024;11.726;2023-05-07T11:31:34;94923.22;;;24.26;37.99
9538;BME280;4807;48.024;11.726;2023-05-07T11:34:43;94922.78;;;24.14;40.46
9538;BME280;4807;48.024;11.726;2023-05-07T11:37:58;94907.91;;;24.35;40.38
9538;BME280;4807;48.024;11.726;2023-05-07T11:41:09;94911.06;;;24.90;36.16
9538;BME280;4807;48.024;11.726;2023-05-07T11:44:17;94909.03;;;23.66;38.08
9538;BME280;4807;48.024;11.726;2023-05-07T11:47:30;94906.81;;;24.02;39.93
9538;BME280;4807;48.024;11.726;2023-05-07T11:50:50;94908.16;;;23.32;40.96
9538;BME280;4807;48.024;11.726;2023-05-07T11:54:00;94917.97;;;23.23;40.14
9538;BME280;4807;48.024;11.726;2023-05-07T11:57:15;94909.19;;;23.36;41.00
9538;BME280;4807;48.024;11.726;2023-05-07T12:00:23;94915.91;;;23.53;39.97
9538;BME280;4807;48.024;11.726;2023-05-07T12:03:34;94909.72;;;24.16;39.87
9538;BME280;4807;48.024;11.726;2023-05-07T12:06:43;94906.63;;;24.75;38.04
9538;BME280;4807;48.024;11.726;2023-05-07T12:09:53;94913.53;;;24.67;37.33
9538;BME280;4807;48.024;11.726;2023-05-07T12:13:02;94911.34;;;24.46;37.74
9538;BME280;4807;48.024;11.726;2023-05-07T12:16:11;94909.19;;;24.66;38.45
9538;BME280;4807;48.024;11.726;2023-05-07T12:19:22;94904.31;;;24.87;38.08
9538;BME280;4807;48.024;11.726;2023-05-07T12:22:31;94899.94;;;24.91;37.52
9538;BME280;4807;48.024;11.726;2023-05-07T12:25:41;94902.88;;;24.47;37.80
9538;BME280;4807;48.024;11.726;2023-05-07T12:28:55;94897.56;;;24.03;40.06
9538;BME280;4807;48.024;11.726;2023-05-07T12:32:06;94890.41;;;24.41;38.48
9538;BME280;4807;48.024;11.726;2023-05-07T12:35:17;94899.69;;;24.40;39.74
9538;BME280;4807;48.024;11.726;2023-05-07T12:38:25;94897.19;;;24.15;38.53
9538;BME280;4807;48.024;11.726;2023-05-07T12:41:51;94890.13;;;24.14;38.65
9538;BME280;4807;48.024;11.726;2023-05-07T12:45:08;94888.78;;;24.11;39.64
9538;BME280;4807;48.024;11.726;2023-05-07T12:48:19;94882.06;;;24.04;40.57
9538;BME280;4807;48.024;11.726;2023-05-07T12:51:30;94875.44;;;23.47;39.15
9538;BME280;4807;48.024;11.726;2023-05-07T12:54:38;94874.34;;;23.48;39.99
9538;BME280;4807;48.024;11.726;2023-05-07T12:57:49;94878.94;;;23.52;39.27
9538;BME280;4807;48.024;11.726;2023-05-07T13:01:00;94872.56;;;23.72;39.82
9538;BME280;4807;48.024;11.726;2023-05-07T13:04:09;94871.81;;;23.95;38.39
9538;BME280;4807;48.024;11.726;2023-05-07T13:07:26;94873.16;;;23.98;38.98
9538;BME280;4807;48.024;11.726;2023-05-07T13:10:37;94872.97;;;23.89;39.37
9538;BME280;4807;48.024;11.726;2023-05-07T13:13:46;94883.94;;;24.37;38.49
9538;BME280;4807;48.024;11.726;2023-05-07T13:16:54;94876.88;;;24.07;37.97
9538;BME280;4807;48.024;11.726;2023-05-07T13:20:04;94882.78;;;24.43;37.23
9538;BME280;4807;48.024;11.726;2023-05-07T13:23:14;94882.63;;;24.01;38.34
9538;BME280;4807;48.024;11.726;2023-05-07T13:26:23;94887.25;;;23.71;38.16
9538;BME280;4807;48.024;11.726;2023-05-07T13:29:33;94884.31;;;23.96;39.60
9538;BME280;4807;48.024;11.726;2023-05-07T13:32:42;94875.81;;;24.03;37.91
9538;BME280;4807;48.024;11.726;2023-05-07T13:35:53;94872.63;;;24.25;37.35
9538;BME280;4807;48.024;11.726;2023-05-07T13:39:03;94878.66;;;24.17;38.70
9538;BME280;4807;48.024;11.726;2023-05-07T13:42:13;94883.44;;;23.72;37.71
9538;BME280;4807;48.024;11.726;2023-05-07T13:45:22;94891.50;;;23.48;39.13
9538;BME280;4807;48.024;11.726;2023-05-07T13:48:34;94894.44;;;23.08;39.53
9538;BME280;4807;48.024;11.726;2023-05-07T13:51:42;94886.53;;;23.16;40.29
9538;BME280;4807;48.024;11.726;2023-05-07T13:54:53;94886.03;;;23.09;39.16
9538;BME280;4807;48.024;11.726;2023-05-07T13:58:02;94883.94;;;22.91;40.33
9538;BME280;4807;48.024;11.726;2023-05-07T14:01:13;94886.31;;;23.03;40.50
9538;BME280;4807;48.024;11.726;2023-05-07T14:04:22;94888.38;;;23.21;39.20
9538;BME280;4807;48.024;11.726;2023-05-07T14:07:31;94885.06;;;23.29;38.81
9538;BME280;4807;48.024;11.726;2023-05-07T14:10:41;94880.69;;;22.94;39.85
9538;BME280;4807;48.024;11.726;2023-05-07T14:13:50;94890.03;;;23.17;40.41
9538;BME280;4807;48.024;11.726;2023-05-07T14:16:58;94889.03;;;23.47;39.91
9538;BME280;4807;48.024;11.726;2023-05-07T14:20:08;94895.13;;;23.29;39.16
9538;BME280;4807;48.024;11.726;2023-05-07T14:23:18;94898.75;;;23.14;39.95
9538;BME280;4807;48.024;11.726;2023-05-07T14:26:28;94879.84;;;23.38;40.34
9538;BME280;4807;48.024;11.726;2023-05-07T14:29:36;94880.38;;;23.01;39.67
9538;BME280;4807;48.024;11.726;2023-05-07T14:32:45;94890.91;;;22.33;41.07
9538;BME280;4807;48.024;11.726;2023-05-07T14:35:53;94895.47;;;22.53;41.64
9538;BME280;4807;48.024;11.726;2023-05-07T14:39:02;94896.38;;;22.18;41.48
9538;BME280;4807;48.024;11.726;2023-05-07T14:42:12;94892.88;;;22.12;42.20
9538;BME280;4807;48.024;11.726;2023-05-07T14:45:21;94898.03;;;22.03;42.18
9538;BME280;4807;48.024;11.726;2023-05-07T14:48:30;94896.09;;;22.14;41.62
9538;BME280;4807;48.024;11.726;2023-05-07T14:51:39;94903.97;;;22.11;41.59
9538;BME280;4807;48.024;11.726;2023-05-07T14:54:47;94901.03;;;21.97;41.80
9538;BME280;4807;48.024;11.726;2023-05-07T14:57:59;94905.91;;;22.05;42.58
9538;BME280;4807;48.024;11.726;2023-05-07T15:01:08;94908.31;;;21.76;42.12
9538;BME280;4807;48.024;11.726;2023-05-07T15:04:17;94905.03;;;21.89;42.22
9538;BME280;4807;48.024;11.726;2023-05-07T15:07:25;94904.53;;;22.02;41.97
9538;BME280;4807;48.024;11.726;2023-05-07T15:10:36;94904.78;;;22.06;43.34
9538;BME280;4807;48.024;11.726;2023-05-07T15:13:49;94901.53;;;22.14;42.39
9538;BME280;4807;48.024;11.726;2023-05-07T15:16:58;94900.72;;;21.93;43.18
9538;BME280;4807;48.024;11.726;2023-05-07T15:20:07;94897.22;;;22.13;42.81
9538;BME280;4807;48.024;11.726;2023-05-07T15:23:17;94897.66;;;22.40;42.98
9538;BME280;4807;48.024;11.726;2023-05-07T15:26:29;94900.44;;;22.25;43.02
9538;BME280;4807;48.024;11.726;2023-05-07T15:29:40;94897.72;;;22.15;42.97
9538;BME280;4807;48.024;11.726;2023-05-07T15:32:49;94888.38;;;22.67;41.86
9538;BME280;4807;48.024;11.726;2023-05-07T15:35:58;94888.75;;;23.09;44.03
9538;BME280;4807;48.024;11.726;2023-05-07T15:39:07;94883.44;;;23.28;42.25
9538;BME280;4807;48.024;11.726;2023-05-07T15:42:15;94885.69;;;23.60;41.22
9538;BME280;4807;48.024;11.726;2023-05-07T15:45:25;94883.09;;;23.40;42.39
9538;BME280;4807;48.024;11.726;2023-05-07T15:48:34;94883.09;;;22.96;40.55
9538;BME280;4807;48.024;11.726;2023-05-07T15:51:43;94886.16;;;22.84;41.29
9538;BME280;4807;48.024;11.726;2023-05-07T15:54:52;94885.09;;;22.65;42.73
9538;BME280;4807;48.024;11.726;2023-05-07T15:58:01;94892.78;;;22.42;42.60
9538;BME280;4807;48.024;11.726;2023-05-07T16:01:12;94879.25;;;22.22;42.83
9538;BME280;4807;48.024;11.726;2023-05-07T16:04:21;94883.09;;;22.06;43.13
9538;BME280;4807;48.024;11.726;2023-05-07T16:07:30;94875.00;;;21.70;42.36
9538;BME280;4807;48.024;11.726;2023-05-07T16:10:39;94877.72;;;21.55;43.97
9538;BME280;4807;48.024;11.726;2023-05-07T16:13:47;94876.03;;;21.19;44.52
9538;BME280;4807;48.024;11.726;2023-05-07T16:16:57;94867.03;;;20.98;45.36
9538;BME280;4807;48.024;11.726;2023-05-07T16:20:07;94869.16;;;20.81;45.58
9538;BME280;4807;48.024;11.726;2023-05-07T16:23:19;94866.72;;;20.74;46.32
9538;BME280;4807;48.024;11.726;2023-05-07T16:26:28;94860.44;;;20.59;45.76
9538;BME280;4807;48.024;11.726;2023-05-07T16:29:37;94865.56;;;20.55;45.67
9538;BME280;4807;48.024;11.726;2023-05-07T16:32:47;94863.88;;;20.39;45.97
9538;BME280;4807;48.024;11.726;2023-05-07T16:35:56;94863.25;;;20.32;46.38
9538;BME280;4807;48.024;11.726;2023-05-07T16:39:05;94868.09;;;20.25;47.26
9538;BME280;4807;48.024;11.726;2023-05-07T16:42:14;94866.44;;;20.18;47.21
9538;BME280;4807;48.024;11.726;2023-05-07T16:45:22;94870.50;;;20.21;48.28
9538;BME280;4807;48.024;11.726;2023-05-07T16:48:32;94867.47;;;20.12;46.88
9538;BME280;4807;48.024;11.726;2023-05-07T16:51:41;94870.19;;;20.12;47.86
9538;BME280;4807;48.024;11.726;2023-05-07T16:54:50;94868.56;;;20.11;47.49
9538;BME280;4807;48.024;11.726;2023-05-07T16:58:01;94870.72;;;20.09;47.51
9538;BME280;4807;48.024;11.726;2023-05-07T17:01:10;94873.13;;;20.06;47.64
9538;BME280;4807;48.024;11.726;2023-05-07T17:04:23;94884.19;;;20.04;47.86
9538;BME280;4807;48.024;11.726;2023-05-07T17:07:31;94866.31;;;19.98;48.54